Time;durP1;ratioP1;P1;durP2;ratioP2;P2;SDS_P1;SDS_P2;PMS_P1;PMS_P2;Temp;Humidity;BMP_temperature;BMP_pressure;BME280_temperature;BME280_humidity;BME280_pressure;Samples;Min_cycle;Max_cycle;Signal;HPM_P1;HPM_P2
2022/08/29 00:02:04;;;;;;;;;;;;;;;25.27;40.75;95147.75;5558204;28;1718;-70
2022/08/29 00:04:47;;;;;;;;;;;;;;;25.24;40.83;95146.34;5569879;28;1488;-71
2022/08/29 00:07:30;;;;;;;;;;;;;;;25.24;41.13;95146.34;5552419;28;1983;-70
2022/08/29 00:10:13;;;;;;;;;;;;;;;25.24;41.47;95146.34;5571871;28;1672;-71
2022/08/29 00:12:57;;;;;;;;;;;;;;;25.25;41.25;95145.28;5566397;28;1805;-71
2022/08/29 00:15:40;;;;;;;;;;;;;;;25.21;41.78;95141.44;5565097;28;1760;-71
2022/08/29 00:18:28;;;;;;;;;;;;;;;25.16;41.89;95146.72;5550139;28;1834;-71
2022/08/29 00:21:11;;;;;;;;;;;;;;;25.13;41.85;95146.38;5549365;28;1931;-72
2022/08/29 00:23:53;;;;;;;;;;;;;;;25.10;42.04;95144.13;5552460;28;1735;-71
2022/08/29 00:26:36;;;;;;;;;;;;;;;25.05;42.01;95142.19;5568733;28;1744;-71
2022/08/29 00:29:19;;;;;;;;;;;;;;;25.04;42.24;95137.84;5537635;28;1911;-71
2022/08/29 00:32:02;;;;;;;;;;;;;;;25.03;42.06;95149.66;5563332;28;1692;-72
2022/08/29 00:34:47;;;;;;;;;;;;;;;24.95;42.15;95136.56;5572229;28;1589;-71
2022/08/29 00:37:30;;;;;;;;;;;;;;;24.97;41.76;95134.47;5561062;28;1713;-71
2022/08/29 00:40:15;;;;;;;;;;;;;;;24.93;41.87;95130.66;5559161;28;1513;-71
2022/08/29 00:42:58;;;;;;;;;;;;;;;24.93;42.18;95133.34;5561651;28;1773;-72
2022/08/29 00:45:46;;;;;;;;;;;;;;;24.91;41.96;95132.75;5573676;28;1791;-72
2022/08/29 00:48:29;;;;;;;;;;;;;;;24.93;41.74;95131.44;5557719;28;1910;-71
2022/08/29 00:51:17;;;;;;;;;;;;;;;24.98;41.74;95130.72;5551662;28;1558;-72
2022/08/29 00:54:02;;;;;;;;;;;;;;;24.93;41.44;95136.84;5543070;28;1809;-72
2022/08/29 00:56:46;;;;;;;;;;;;;;;24.92;41.44;95126.31;5552465;28;1722;-72
2022/08/29 00:59:33;;;;;;;;;;;;;;;24.88;41.50;95127.84;5538029;28;1661;-71
2022/08/29 01:02:15;;;;;;;;;;;;;;;24.90;41.82;95129.25;5552197;28;1456;-71
2022/08/29 01:04:59;;;;;;;;;;;;;;;25.01;41.65;95132.94;5543136;28;1598;-72
2022/08/29 01:07:43;;;;;;;;;;;;;;;25.01;41.74;95139.16;5551025;28;1985;-72
2022/08/29 01:13:29;;;;;;;;;;;;;;;24.98;41.97;95133.41;5551092;28;1720;-71
2022/08/29 01:16:14;;;;;;;;;;;;;;;25.02;41.64;95137.28;5542685;28;1699;-72
2022/08/29 01:19:00;;;;;;;;;;;;;;;25.00;41.83;95134.00;5552010;28;1706;-71
2022/08/29 01:21:47;;;;;;;;;;;;;;;25.01;41.60;95131.09;5550729;28;1694;-72
2022/08/29 01:24:37;;;;;;;;;;;;;;;25.00;42.02;95134.00;5551692;28;1719;-73
2022/08/29 01:27:22;;;;;;;;;;;;;;;25.02;41.77;95126.53;5541693;28;1911;-72
2022/08/29 01:30:05;;;;;;;;;;;;;;;24.99;42.05;95135.06;5551752;28;1730;-72
2022/08/29 01:32:48;;;;;;;;;;;;;;;24.93;42.25;95133.34;5551379;28;1737;-72
2022/08/29 01:35:32;;;;;;;;;;;;;;;24.91;42.36;95138.13;5550944;28;1761;-72
2022/08/29 01:38:26;;;;;;;;;;;;;;;24.83;42.34;95133.09;5542514;28;1620;-71
2022/08/29 01:41:11;;;;;;;;;;;;;;;24.80;42.39;95131.66;5551082;28;1678;-72
2022/08/29 01:43:55;;;;;;;;;;;;;;;24.76;42.53;95136.69;5550939;28;1558;-71
2022/08/29 01:46:38;;;;;;;;;;;;;;;24.80;42.63;95135.16;5551542;28;1528;-72
2022/08/29 01:49:22;;;;;;;;;;;;;;;24.79;42.61;95138.91;5543836;28;1909;-71
2022/08/29 01:52:05;;;;;;;;;;;;;;;24.79;42.55;95138.91;5550170;28;1545;-71
2022/08/29 01:54:48;;;;;;;;;;;;;;;24.80;43.20;95135.16;5554063;28;1799;-71
2022/08/29 01:57:32;;;;;;;;;;;;;;;24.79;42.87;95133.53;5555103;28;1702;-71
2022/08/29 02:00:16;;;;;;;;;;;;;;;24.78;43.05;95134.56;5550610;28;1524;-72
2022/08/29 02:03:00;;;;;;;;;;;;;;;24.68;42.77;95142.44;5550079;28;1737;-72
2022/08/29 02:05:47;;;;;;;;;;;;;;;24.63;42.80;95139.63;5552626;28;1716;-71
2022/08/29 02:08:30;;;;;;;;;;;;;;;24.64;43.05;95143.94;5538953;28;1906;-72
2022/08/29 02:11:14;;;;;;;;;;;;;;;24.70;42.84;95150.25;5554155;28;1792;-72
2022/08/29 02:14:00;;;;;;;;;;;;;;;24.67;42.90;95140.81;5544864;28;1753;-72
2022/08/29 02:16:43;;;;;;;;;;;;;;;24.66;42.81;95143.72;5551416;28;1731;-72
2022/08/29 02:19:26;;;;;;;;;;;;;;;24.70;42.76;95137.66;5554099;28;1380;-72
2022/08/29 02:22:10;;;;;;;;;;;;;;;24.70;42.70;95143.03;5554549;28;1779;-72
2022/08/29 02:24:52;;;;;;;;;;;;;;;24.75;42.65;95137.72;5545097;28;1766;-72
2022/08/29 02:27:35;;;;;;;;;;;;;;;24.80;42.29;95140.53;5553925;28;1748;-72
2022/08/29 02:30:20;;;;;;;;;;;;;;;24.80;42.42;95145.09;5554172;28;1910;-72
2022/08/29 02:33:03;;;;;;;;;;;;;;;24.79;42.27;95144.28;5555104;28;1732;-72
2022/08/29 02:35:48;;;;;;;;;;;;;;;24.84;42.34;95145.47;5544163;28;1734;-72
2022/08/29 02:38:31;;;;;;;;;;;;;;;24.88;41.96;95146.66;5553465;28;1730;-72
2022/08/29 02:41:14;;;;;;;;;;;;;;;24.86;41.91;95149.56;5553849;28;1776;-73
2022/08/29 02:43:57;;;;;;;;;;;;;;;24.82;41.94;95147.56;5553850;28;1770;-72
2022/08/29 02:46:41;;;;;;;;;;;;;;;24.86;41.90;95146.06;5545666;28;1721;-74
2022/08/29 02:49:24;;;;;;;;;;;;;;;24.77;41.89;95151.75;5556473;28;1976;-74
2022/08/29 02:52:07;;;;;;;;;;;;;;;24.74;41.84;95148.72;5575900;28;1586;-75
2022/08/29 02:54:50;;;;;;;;;;;;;;;24.66;42.04;95160.66;5571295;28;1764;-77
2022/08/29 02:57:33;;;;;;;;;;;;;;;24.69;41.78;95154.00;5570642;28;1775;-74
2022/08/29 03:00:17;;;;;;;;;;;;;;;24.65;42.00;95164.41;5551391;28;1747;-77
2022/08/29 03:03:02;;;;;;;;;;;;;;;24.58;41.87;95158.31;5565349;28;1720;-72
2022/08/29 03:05:46;;;;;;;;;;;;;;;24.37;42.09;95173.13;5575102;28;1848;-74
2022/08/29 03:08:29;;;;;;;;;;;;;;;24.22;42.26;95173.59;5563828;28;1980;-74
2022/08/29 03:11:12;;;;;;;;;;;;;;;24.19;42.11;95176.72;5550143;28;1635;-74
2022/08/29 03:13:57;;;;;;;;;;;;;;;24.11;42.07;95182.41;5561126;28;1868;-76
2022/08/29 03:16:40;;;;;;;;;;;;;;;24.04;42.23;95184.34;5576368;28;1641;-75
2022/08/29 03:19:24;;;;;;;;;;;;;;;24.09;42.02;95181.81;5561287;28;1782;-76
2022/08/29 03:22:08;;;;;;;;;;;;;;;24.13;42.14;95182.97;5546811;28;1730;-77
2022/08/29 03:24:51;;;;;;;;;;;;;;;24.04;42.08;95179.78;5562100;28;1486;-77
2022/08/29 03:27:34;;;;;;;;;;;;;;;24.07;42.25;95183.88;5575561;28;1750;-77
2022/08/29 03:30:17;;;;;;;;;;;;;;;24.03;42.52;95188.09;5576576;28;1918;-77
2022/08/29 03:33:01;;;;;;;;;;;;;;;23.96;42.49;95198.09;5565931;28;1600;-75
2022/08/29 03:35:45;;;;;;;;;;;;;;;23.99;42.54;95193.09;5562756;28;1700;-77
2022/08/29 03:38:28;;;;;;;;;;;;;;;24.00;42.53;95194.72;5567454;28;1746;-77
2022/08/29 03:41:12;;;;;;;;;;;;;;;24.00;42.50;95185.88;5573681;28;1774;-76
2022/08/29 03:43:56;;;;;;;;;;;;;;;24.05;43.57;95186.00;5557471;28;1532;-75
2022/08/29 03:46:39;;;;;;;;;;;;;;;24.33;42.67;95188.06;5575417;28;1707;-75
2022/08/29 03:49:22;;;;;;;;;;;;;;;24.12;42.69;95192.88;5573721;28;1988;-78
2022/08/29 03:52:08;;;;;;;;;;;;;;;24.05;43.34;95192.19;5575327;28;1705;-73
2022/08/29 03:54:51;;;;;;;;;;;;;;;23.95;44.53;95199.16;5559443;28;1716;-74
2022/08/29 03:57:34;;;;;;;;;;;;;;;23.76;46.42;95201.91;5530975;28;1058;-74
2022/08/29 04:00:18;;;;;;;;;;;;;;;23.65;45.78;95198.09;5564692;28;1736;-79
2022/08/29 04:03:01;;;;;;;;;;;;;;;23.72;45.70;95198.00;5559725;28;1834;-73
2022/08/29 04:05:43;;;;;;;;;;;;;;;23.58;46.32;95201.91;5560697;28;1049;-74
2022/08/29 04:08:28;;;;;;;;;;;;;;;23.53;46.52;95189.16;5560218;28;1180;-71
2022/08/29 04:11:11;;;;;;;;;;;;;;;23.48;46.40;95191.72;5574833;28;1902;-76
2022/08/29 04:13:55;;;;;;;;;;;;;;;23.36;47.80;95198.84;5554597;28;1765;-74
2022/08/29 04:16:38;;;;;;;;;;;;;;;23.39;47.34;95201.91;5560898;28;1710;-76
2022/08/29 04:19:21;;;;;;;;;;;;;;;23.38;47.30;95200.25;5553145;28;1513;-76
2022/08/29 04:22:05;;;;;;;;;;;;;;;23.35;47.16;95208.75;5555522;28;1571;-75
2022/08/29 04:24:49;;;;;;;;;;;;;;;23.27;47.35;95208.25;5550473;28;1401;-76
2022/08/29 04:27:32;;;;;;;;;;;;;;;23.29;47.09;95214.19;5551434;28;1170;-76
2022/08/29 04:30:16;;;;;;;;;;;;;;;23.18;47.22;95208.53;5540788;28;1989;-76
2022/08/29 04:32:59;;;;;;;;;;;;;;;23.17;47.27;95212.28;5551868;28;1213;-76
2022/08/29 04:35:42;;;;;;;;;;;;;;;23.23;46.57;95222.09;5552525;28;994;-76
2022/08/29 04:38:25;;;;;;;;;;;;;;;23.28;46.53;95221.44;5552864;28;971;-75
2022/08/29 04:41:13;;;;;;;;;;;;;;;23.19;47.03;95220.91;5540726;28;1151;-76
2022/08/29 04:43:56;;;;;;;;;;;;;;;23.06;47.12;95223.72;5550800;28;1168;-76
2022/08/29 04:46:39;;;;;;;;;;;;;;;23.01;47.50;95226.25;5549757;28;1239;-76
2022/08/29 04:49:22;;;;;;;;;;;;;;;22.94;47.97;95226.31;5549972;28;1917;-76
2022/08/29 04:52:06;;;;;;;;;;;;;;;23.06;47.27;95229.09;5541661;28;1292;-76
2022/08/29 04:54:49;;;;;;;;;;;;;;;22.97;47.93;95233.91;5550951;28;1075;-76
2022/08/29 04:57:35;;;;;;;;;;;;;;;22.94;48.35;95231.69;5554143;28;1104;-76
2022/08/29 05:00:21;;;;;;;;;;;;;;;22.96;48.19;95237.66;5554004;28;1063;-76
2022/08/29 05:03:06;;;;;;;;;;;;;;;22.93;48.43;95240.75;5548675;28;1109;-75
2022/08/29 05:05:55;;;;;;;;;;;;;;;22.97;48.22;95236.59;5549986;28;1098;-75
2022/08/29 05:08:39;;;;;;;;;;;;;;;22.96;48.79;95234.97;5552732;28;1129;-76
2022/08/29 05:11:22;;;;;;;;;;;;;;;22.93;49.07;95248.78;5551400;28;1914;-75
2022/08/29 05:14:06;;;;;;;;;;;;;;;22.96;48.89;95245.69;5547604;28;1158;-75
2022/08/29 05:16:49;;;;;;;;;;;;;;;22.98;48.83;95246.25;5546979;28;1547;-75
2022/08/29 05:19:32;;;;;;;;;;;;;;;22.99;48.87;95247.94;5552823;28;1025;-75
2022/08/29 05:22:18;;;;;;;;;;;;;;;23.07;48.76;95251.34;5552000;28;1133;-75
2022/08/29 05:25:01;;;;;;;;;;;;;;;23.18;48.20;95247.94;5551189;28;1334;-75
2022/08/29 05:27:44;;;;;;;;;;;;;;;23.22;48.51;95257.19;5544910;28;1117;-75
2022/08/29 05:30:29;;;;;;;;;;;;;;;23.31;49.79;95261.19;5556611;28;1902;-75
2022/08/29 05:33:17;;;;;;;;;;;;;;;23.26;49.40;95257.56;5555977;28;1096;-75
2022/08/29 05:36:00;;;;;;;;;;;;;;;23.30;49.15;95256.03;5556344;28;1064;-75
2022/08/29 05:38:43;;;;;;;;;;;;;;;23.34;48.36;95263.44;5546553;28;1157;-75
2022/08/29 05:41:26;;;;;;;;;;;;;;;23.40;48.36;95264.41;5555933;28;1127;-76
2022/08/29 05:44:09;;;;;;;;;;;;;;;23.39;47.35;95271.63;5556467;28;879;-74
2022/08/29 05:46:53;;;;;;;;;;;;;;;23.42;47.28;95273.88;5555322;28;1609;-73
2022/08/29 05:49:36;;;;;;;;;;;;;;;23.42;47.41;95278.41;5546471;28;2055;-76
2022/08/29 05:52:20;;;;;;;;;;;;;;;23.47;47.49;95275.91;5556544;28;1009;-75
2022/08/29 05:55:03;;;;;;;;;;;;;;;23.48;47.01;95277.56;5555963;28;1079;-73
2022/08/29 05:57:48;;;;;;;;;;;;;;;23.44;47.19;95276.34;5556224;28;1053;-74
2022/08/29 06:00:31;;;;;;;;;;;;;;;23.45;46.97;95281.50;5547174;28;1798;-75
2022/08/29 06:03:17;;;;;;;;;;;;;;;23.55;46.98;95282.84;5555608;28;1789;-76
2022/08/29 06:06:00;;;;;;;;;;;;;;;23.58;47.05;95277.84;5555695;28;1085;-75
2022/08/29 06:08:43;;;;;;;;;;;;;;;23.65;46.56;95283.13;5555687;28;998;-74
2022/08/29 06:11:27;;;;;;;;;;;;;;;23.69;46.49;95284.31;5546193;28;1886;-75
2022/08/29 06:14:10;;;;;;;;;;;;;;;23.71;46.35;95276.88;5555287;28;1133;-77
2022/08/29 06:16:54;;;;;;;;;;;;;;;23.87;46.42;95276.25;5555236;28;1192;-76
2022/08/29 06:19:39;;;;;;;;;;;;;;;23.97;46.24;95280.25;5556256;28;1005;-76
2022/08/29 06:22:22;;;;;;;;;;;;;;;24.10;45.88;95278.22;5551333;28;1021;-75
2022/08/29 06:25:05;;;;;;;;;;;;;;;24.21;46.01;95276.63;5550387;28;1170;-76
2022/08/29 06:28:08;;;;;;;;;;;;;;;24.29;46.14;95279.00;5555474;28;1429;-76
2022/08/29 06:30:52;;;;;;;;;;;;;;;24.34;45.91;95275.66;5554767;28;1910;-74
2022/08/29 06:33:35;;;;;;;;;;;;;;;24.40;45.76;95282.78;5551129;28;1045;-74
2022/08/29 06:36:19;;;;;;;;;;;;;;;24.45;45.60;95274.88;5550363;28;1227;-75
2022/08/29 06:39:05;;;;;;;;;;;;;;;24.48;45.25;95284.34;5554497;28;1096;-75
2022/08/29 06:41:48;;;;;;;;;;;;;;;24.53;45.10;95277.22;5555524;28;1069;-75
2022/08/29 06:44:31;;;;;;;;;;;;;;;24.56;45.47;95275.94;5555124;28;1156;-75
2022/08/29 06:47:14;;;;;;;;;;;;;;;24.61;45.02;95283.28;5544525;28;1231;-75
2022/08/29 06:49:57;;;;;;;;;;;;;;;24.68;45.13;95284.03;5554867;28;1240;-74
2022/08/29 06:52:41;;;;;;;;;;;;;;;24.73;44.46;95284.16;5554415;28;1910;-74
2022/08/29 06:55:24;;;;;;;;;;;;;;;24.76;44.52;95284.50;5555171;28;989;-73
2022/08/29 06:58:08;;;;;;;;;;;;;;;24.79;44.20;95289.41;5545326;28;1233;-76
2022/08/29 07:00:50;;;;;;;;;;;;;;;24.83;44.13;95286.28;5554336;28;1040;-75
2022/08/29 07:03:33;;;;;;;;;;;;;;;24.87;44.05;95285.59;5554338;28;1137;-76
2022/08/29 07:06:17;;;;;;;;;;;;;;;24.92;43.83;95279.50;5554933;28;1053;-76
2022/08/29 07:09:03;;;;;;;;;;;;;;;24.94;44.03;95290.88;5544721;28;1120;-75
2022/08/29 07:11:46;;;;;;;;;;;;;;;24.98;43.95;95294.72;5554635;28;1910;-76
2022/08/29 07:14:29;;;;;;;;;;;;;;;24.98;44.25;95294.72;5554401;28;969;-75
2022/08/29 07:17:12;;;;;;;;;;;;;;;24.99;44.09;95288.31;5553732;28;1052;-75
2022/08/29 07:20:08;;;;;;;;;;;;;;;24.98;44.16;95292.84;5544666;28;1473;-76
2022/08/29 07:22:51;;;;;;;;;;;;;;;25.00;43.68;95289.94;5553513;28;1159;-76
2022/08/29 07:25:36;;;;;;;;;;;;;;;25.02;43.71;95287.84;5554087;28;1017;-77
2022/08/29 07:28:19;;;;;;;;;;;;;;;25.05;43.81;95298.13;5554412;28;1542;-77
2022/08/29 07:31:02;;;;;;;;;;;;;;;25.07;43.71;95295.19;5544194;28;1906;-76
2022/08/29 07:33:45;;;;;;;;;;;;;;;25.08;43.55;95297.66;5553834;28;1122;-76
2022/08/29 07:36:28;;;;;;;;;;;;;;;25.08;43.60;95292.28;5553848;28;989;-76
2022/08/29 07:39:12;;;;;;;;;;;;;;;25.09;43.41;95303.84;5553150;28;1238;-76
2022/08/29 07:41:57;;;;;;;;;;;;;;;25.11;43.38;95301.75;5549073;28;1188;-76
2022/08/29 07:44:40;;;;;;;;;;;;;;;25.12;43.30;95296.13;5548501;28;1013;-76
2022/08/29 07:47:25;;;;;;;;;;;;;;;25.13;43.37;95300.47;5553139;28;1244;-76
2022/08/29 07:50:10;;;;;;;;;;;;;;;25.15;43.27;95295.66;5552399;28;1403;-76
2022/08/29 07:52:53;;;;;;;;;;;;;;;25.16;42.94;95300.00;5549479;28;1906;-73
2022/08/29 07:55:37;;;;;;;;;;;;;;;25.17;43.05;95290.06;5548239;28;1133;-75
2022/08/29 07:58:21;;;;;;;;;;;;;;;25.19;42.68;95296.84;5553281;28;1487;-75
2022/08/29 08:01:04;;;;;;;;;;;;;;;25.19;42.75;95293.34;5552693;28;1168;-75
2022/08/29 08:03:47;;;;;;;;;;;;;;;25.18;42.71;95292.53;5553628;28;1082;-76
2022/08/29 08:06:32;;;;;;;;;;;;;;;25.20;42.67;95287.72;5543980;28;1163;-76
2022/08/29 08:09:17;;;;;;;;;;;;;;;25.21;42.61;95300.13;5552580;28;1105;-75
2022/08/29 08:12:00;;;;;;;;;;;;;;;25.22;42.77;95288.31;5553696;28;1985;-75
2022/08/29 08:14:51;;;;;;;;;;;;;;;25.23;42.81;95281.84;5552980;28;1022;-76
2022/08/29 08:17:34;;;;;;;;;;;;;;;25.23;42.62;95284.53;5543158;28;1153;-75
2022/08/29 08:20:16;;;;;;;;;;;;;;;25.25;42.51;95287.00;5552927;28;1025;-74
2022/08/29 08:22:59;;;;;;;;;;;;;;;25.24;42.54;95286.19;5552209;28;1736;-75
2022/08/29 08:25:42;;;;;;;;;;;;;;;25.27;42.61;95284.06;5553096;28;1825;-75
2022/08/29 08:28:27;;;;;;;;;;;;;;;25.25;42.30;95282.44;5543058;28;1589;-74
2022/08/29 08:31:12;;;;;;;;;;;;;;;25.27;42.60;95276.00;5552067;28;1993;-73
2022/08/29 08:33:56;;;;;;;;;;;;;;;25.30;42.36;95275.53;5553086;28;1180;-73
2022/08/29 08:36:39;;;;;;;;;;;;;;;25.32;42.43;95281.50;5552696;28;1126;-73
2022/08/29 08:39:23;;;;;;;;;;;;;;;25.33;42.45;95273.22;5543120;28;1522;-75
2022/08/29 08:42:12;;;;;;;;;;;;;;;25.35;42.63;95276.47;5552473;28;1192;-74
2022/08/29 08:45:03;;;;;;;;;;;;;;;25.36;42.48;95277.31;5552606;28;1033;-75
2022/08/29 08:47:49;;;;;;;;;;;;;;;25.37;42.55;95279.75;5552551;28;1360;-75
2022/08/29 08:50:37;;;;;;;;;;;;;;;25.38;42.77;95267.09;5543190;28;1146;-75
2022/08/29 08:53:21;;;;;;;;;;;;;;;25.41;42.92;95270.16;5551530;28;1934;-73
2022/08/29 08:56:07;;;;;;;;;;;;;;;25.40;42.69;95262.31;5551955;28;1172;-74
2022/08/29 08:58:52;;;;;;;;;;;;;;;25.40;42.70;95257.75;5552146;28;1005;-75
2022/08/29 09:01:37;;;;;;;;;;;;;;;25.40;42.56;95257.75;5546903;28;1292;-73
2022/08/29 09:04:42;;;;;;;;;;;;;;;25.42;43.08;95260.22;5550847;28;2017;-73
2022/08/29 09:07:38;;;;;;;;;;;;;;;25.45;42.99;95254.38;5551550;28;1332;-74
2022/08/29 09:10:31;;;;;;;;;;;;;;;25.45;42.73;95251.66;5552011;28;1178;-73
2022/08/29 09:13:20;;;;;;;;;;;;;;;25.46;43.12;95251.41;5542471;28;1971;-74
2022/08/29 09:16:08;;;;;;;;;;;;;;;25.46;43.02;95246.03;5551601;28;1255;-74
2022/08/29 09:18:51;;;;;;;;;;;;;;;25.46;43.05;95240.66;5551772;28;1113;-74
2022/08/29 09:21:42;;;;;;;;;;;;;;;25.48;42.88;95245.81;5551373;28;1125;-74
2022/08/29 09:24:31;;;;;;;;;;;;;;;25.46;43.00;95245.22;5542671;28;1135;-72
2022/08/29 09:27:17;;;;;;;;;;;;;;;25.48;43.14;95238.56;5551453;28;1124;-75
2022/08/29 09:30:03;;;;;;;;;;;;;;;25.50;42.93;95232.13;5550905;28;1149;-76
2022/08/29 09:32:53;;;;;;;;;;;;;;;25.50;42.64;95230.28;5552010;28;1917;-74
2022/08/29 09:35:39;;;;;;;;;;;;;;;25.50;42.76;95224.91;5547449;28;1270;-75
2022/08/29 09:38:26;;;;;;;;;;;;;;;25.52;42.89;95220.09;5549348;28;1190;-73
2022/08/29 09:41:10;;;;;;;;;;;;;;;25.52;43.10;95220.09;5551449;28;1176;-74
2022/08/29 09:43:56;;;;;;;;;;;;;;;25.53;43.14;95212.84;5551209;28;1129;-73
2022/08/29 09:46:38;;;;;;;;;;;;;;;25.52;42.98;95220.09;5547854;28;1350;-73
2022/08/29 09:49:21;;;;;;;;;;;;;;;25.55;43.25;95216.09;5547274;28;1626;-74
2022/08/29 09:52:09;;;;;;;;;;;;;;;25.55;43.08;95210.72;5551490;28;1987;-74
2022/08/29 09:54:53;;;;;;;;;;;;;;;25.54;43.18;95207.22;5551610;28;1746;-74
2022/08/29 09:57:37;;;;;;;;;;;;;;;25.57;43.42;95205.94;5551554;28;1141;-73
2022/08/29 10:00:24;;;;;;;;;;;;;;;25.58;43.41;95207.56;5542858;28;1519;-74
2022/08/29 10:03:11;;;;;;;;;;;;;;;25.58;43.48;95210.25;5552656;28;1137;-74
2022/08/29 10:06:05;;;;;;;;;;;;;;;25.58;43.10;95207.56;5552473;28;768;-73
2022/08/29 10:08:55;;;;;;;;;;;;;;;25.57;42.97;95204.06;5552392;28;1177;-73
2022/08/29 10:11:43;;;;;;;;;;;;;;;25.57;43.10;95200.56;5542933;28;1527;-74
2022/08/29 10:14:30;;;;;;;;;;;;;;;25.57;43.42;95193.28;5553142;28;1141;-74
2022/08/29 10:20:16;;;;;;;;;;;;;;;25.55;43.19;95179.25;5553232;28;1168;-72
2022/08/29 10:23:00;;;;;;;;;;;;;;;25.55;43.08;95181.94;5550162;28;1204;-74
2022/08/29 10:25:43;;;;;;;;;;;;;;;25.55;42.91;95179.25;5556168;28;1123;-74
2022/08/29 10:28:31;;;;;;;;;;;;;;;25.55;43.22;95178.44;5556080;28;1041;-74
2022/08/29 10:31:18;;;;;;;;;;;;;;;25.55;43.34;95178.44;5555813;28;1641;-75
2022/08/29 10:34:07;;;;;;;;;;;;;;;25.56;43.25;95191.66;5545724;28;1934;-73
2022/08/29 10:36:52;;;;;;;;;;;;;;;25.54;43.12;95183.00;5554640;28;1116;-75
2022/08/29 10:39:38;;;;;;;;;;;;;;;25.53;43.14;95178.69;5555407;28;1065;-75
2022/08/29 10:42:23;;;;;;;;;;;;;;;25.54;43.24;95183.00;5554140;28;1292;-74
2022/08/29 10:45:13;;;;;;;;;;;;;;;25.54;43.21;95176.81;5545458;28;1084;-75
2022/08/29 10:48:01;;;;;;;;;;;;;;;25.54;42.92;95183.00;5554431;28;1397;-75
2022/08/29 10:50:48;;;;;;;;;;;;;;;25.54;43.12;95195.66;5554794;28;1056;-75
2022/08/29 10:53:32;;;;;;;;;;;;;;;25.54;43.15;95191.09;5554850;28;1989;-75
2022/08/29 10:56:20;;;;;;;;;;;;;;;25.55;43.29;95190.00;5544945;28;1116;-75
2022/08/29 10:59:06;;;;;;;;;;;;;;;25.54;43.17;95180.31;5554284;28;1028;-75
2022/08/29 11:01:54;;;;;;;;;;;;;;;25.53;43.02;95178.69;5554966;28;1005;-75
2022/08/29 11:04:38;;;;;;;;;;;;;;;25.53;43.17;95178.69;5553862;28;1156;-75
2022/08/29 11:07:23;;;;;;;;;;;;;;;25.53;43.25;95170.63;5544927;28;1200;-75
2022/08/29 11:10:09;;;;;;;;;;;;;;;25.53;43.13;95167.94;5554579;28;1029;-74
2022/08/29 11:12:55;;;;;;;;;;;;;;;25.52;43.18;95158.22;5553538;28;1981;-75
2022/08/29 11:15:39;;;;;;;;;;;;;;;25.54;43.26;95160.69;5554084;28;1248;-74
2022/08/29 11:18:26;;;;;;;;;;;;;;;25.54;43.32;95158.78;5544607;28;1172;-74
2022/08/29 11:21:16;;;;;;;;;;;;;;;25.55;43.34;95156.91;5553877;28;1041;-74
2022/08/29 11:24:02;;;;;;;;;;;;;;;25.54;43.31;95150.72;5554347;28;1196;-75
2022/08/29 11:26:51;;;;;;;;;;;;;;;25.56;43.11;95147.81;5553847;28;1077;-73
2022/08/29 11:29:37;;;;;;;;;;;;;;;25.58;43.24;95141.13;5544896;28;1082;-74
2022/08/29 11:32:23;;;;;;;;;;;;;;;25.58;43.30;95151.91;5554407;28;1017;-72
2022/08/29 11:35:11;;;;;;;;;;;;;;;25.59;43.33;95145.44;5553528;28;1208;-75
2022/08/29 11:38:09;;;;;;;;;;;;;;;25.59;43.17;95139.25;5553868;28;1100;-75
2022/08/29 11:41:02;;;;;;;;;;;;;;;25.60;43.03;95144.38;5543924;28;1137;-75
2022/08/29 11:44:12;;;;;;;;;;;;;;;25.61;42.53;95135.28;5553429;28;1215;-75
2022/08/29 11:46:56;;;;;;;;;;;;;;;25.61;42.66;95126.34;5553627;28;1347;-75
2022/08/29 11:49:42;;;;;;;;;;;;;;;25.62;42.44;95131.50;5552755;28;1173;-76
2022/08/29 11:52:27;;;;;;;;;;;;;;;25.61;42.28;95129.88;5543899;28;1013;-74
2022/08/29 11:55:12;;;;;;;;;;;;;;;25.62;42.14;95136.06;5553684;28;1989;-75
2022/08/29 11:58:02;;;;;;;;;;;;;;;25.63;42.05;95129.63;5552971;28;1060;-75
2022/08/29 12:00:51;;;;;;;;;;;;;;;25.63;41.84;95126.94;5553634;28;1072;-75
2022/08/29 12:03:55;;;;;;;;;;;;;;;25.63;41.61;95116.19;5543576;28;1071;-75
2022/08/29 12:06:54;;;;;;;;;;;;;;;25.63;41.65;95106.22;5554182;28;1024;-75
2022/08/29 12:09:44;;;;;;;;;;;;;;;25.64;41.17;95102.50;5554085;28;1141;-75
2022/08/29 12:12:38;;;;;;;;;;;;;;;25.64;41.22;95104.34;5553277;28;1128;-75
2022/08/29 12:15:38;;;;;;;;;;;;;;;25.64;41.17;95112.41;5543874;28;1961;-74
2022/08/29 12:18:33;;;;;;;;;;;;;;;25.66;41.29;95113.00;5546399;28;1250;-74
2022/08/29 12:21:48;;;;;;;;;;;;;;;25.65;41.01;95114.88;5552912;28;1181;-75
2022/08/29 12:24:36;;;;;;;;;;;;;;;25.69;41.44;95110.63;5552900;28;993;-74
2022/08/29 12:27:51;;;;;;;;;;;;;;;25.68;41.17;95114.38;5543903;28;1144;-74
2022/08/29 12:30:37;;;;;;;;;;;;;;;25.71;41.40;95123.03;5552958;28;1099;-74
2022/08/29 12:33:31;;;;;;;;;;;;;;;25.71;40.95;95123.03;5552306;28;1909;-74
2022/08/29 12:36:23;;;;;;;;;;;;;;;25.72;40.72;95135.44;5553197;28;1102;-73
2022/08/29 12:39:14;;;;;;;;;;;;;;;25.73;40.74;95121.75;5547859;28;1256;-73
2022/08/29 12:42:09;;;;;;;;;;;;;;;25.77;40.92;95130.16;5552373;28;1029;-73
2022/08/29 12:45:00;;;;;;;;;;;;;;;25.78;41.07;95129.09;5553446;28;1036;-74
2022/08/29 12:47:46;;;;;;;;;;;;;;;25.76;41.24;95118.56;5549319;28;1457;-72
2022/08/29 12:50:32;;;;;;;;;;;;;;;25.77;41.04;95119.38;5547071;28;1277;-73
2022/08/29 12:53:17;;;;;;;;;;;;;;;25.76;41.11;95120.47;5552520;28;1982;-74
2022/08/29 12:56:02;;;;;;;;;;;;;;;25.75;41.09;95119.63;5551851;28;1160;-73
2022/08/29 12:58:46;;;;;;;;;;;;;;;25.75;41.21;95133.06;5551918;28;1116;-74
2022/08/29 13:01:31;;;;;;;;;;;;;;;25.75;41.32;95129.56;5543008;28;1912;-74
2022/08/29 13:04:16;;;;;;;;;;;;;;;25.76;41.00;95131.22;5551452;28;1164;-74
2022/08/29 13:07:00;;;;;;;;;;;;;;;25.75;40.60;95143.03;5552464;28;1088;-74
2022/08/29 13:09:45;;;;;;;;;;;;;;;25.74;40.47;95136.84;5552147;28;1056;-74
2022/08/29 13:12:28;;;;;;;;;;;;;;;25.73;40.15;95143.28;5542524;28;1083;-73
2022/08/29 13:15:18;;;;;;;;;;;;;;;25.73;39.73;95151.34;5552679;28;1906;-73
2022/08/29 13:18:02;;;;;;;;;;;;;;;25.73;39.87;95159.44;5552022;28;1005;-73
2022/08/29 13:20:47;;;;;;;;;;;;;;;25.73;39.75;95150.53;5552762;28;1134;-74
2022/08/29 13:23:31;;;;;;;;;;;;;;;25.72;40.04;95155.09;5543611;28;1066;-74
2022/08/29 13:26:20;;;;;;;;;;;;;;;25.72;40.12;95144.31;5552402;28;1060;-74
2022/08/29 13:29:15;;;;;;;;;;;;;;;25.72;40.09;95140.81;5553424;28;1034;-74
2022/08/29 13:32:25;;;;;;;;;;;;;;;25.72;39.81;95143.50;5552749;28;1064;-74
2022/08/29 13:35:18;;;;;;;;;;;;;;;25.72;40.31;95146.19;5518039;28;1930;-73
2022/08/29 13:38:10;;;;;;;;;;;;;;;25.71;40.22;95153.47;5552328;28;1069;-73
2022/08/29 13:40:54;;;;;;;;;;;;;;;25.71;40.40;95150.78;5551992;28;1041;-74
2022/08/29 13:43:40;;;;;;;;;;;;;;;25.70;40.23;95154.53;5551790;28;1006;-75
2022/08/29 13:46:26;;;;;;;;;;;;;;;25.72;40.69;95151.59;5541943;28;1237;-73
2022/08/29 13:49:09;;;;;;;;;;;;;;;25.71;40.73;95153.47;5553682;28;1114;-74
2022/08/29 13:51:54;;;;;;;;;;;;;;;25.71;40.51;95155.34;5555860;28;1122;-74
2022/08/29 13:54:38;;;;;;;;;;;;;;;25.72;40.77;95159.66;5555437;28;1915;-74
2022/08/29 13:57:21;;;;;;;;;;;;;;;25.71;41.00;95149.97;5546175;28;1101;-74
2022/08/29 14:00:05;;;;;;;;;;;;;;;25.70;41.02;95151.84;5555677;28;1315;-74
2022/08/29 14:02:49;;;;;;;;;;;;;;;25.72;40.92;95154.28;5555962;28;1037;-75
2022/08/29 14:05:39;;;;;;;;;;;;;;;25.72;41.13;95165.03;5555548;28;1117;-75
2022/08/29 14:08:24;;;;;;;;;;;;;;;25.72;40.99;95167.72;5546463;28;1251;-75
2022/08/29 14:11:07;;;;;;;;;;;;;;;25.72;41.21;95173.13;5555751;28;1001;-74
2022/08/29 14:13:53;;;;;;;;;;;;;;;25.72;41.26;95183.88;5555803;28;1902;-74
2022/08/29 14:16:36;;;;;;;;;;;;;;;25.72;41.43;95194.66;5555927;28;1071;-74
2022/08/29 14:19:19;;;;;;;;;;;;;;;25.72;41.39;95208.91;5546423;28;1110;-74
2022/08/29 14:22:03;;;;;;;;;;;;;;;25.70;41.37;95213.75;5555184;28;1566;-74
2022/08/29 14:24:51;;;;;;;;;;;;;;;25.68;41.22;95211.28;5554685;28;1730;-75
2022/08/29 14:27:34;;;;;;;;;;;;;;;25.71;41.63;95209.97;5555436;28;1191;-71
2022/08/29 14:30:18;;;;;;;;;;;;;;;25.74;41.53;95214.06;5550778;28;1129;-69
2022/08/29 14:33:01;;;;;;;;;;;;;;;25.76;41.62;95218.16;5550499;28;1048;-73
2022/08/29 14:35:44;;;;;;;;;;;;;;;25.76;41.47;95228.13;5554904;28;1930;-73
2022/08/29 14:38:27;;;;;;;;;;;;;;;25.71;41.78;95231.50;5555434;28;1639;-73
2022/08/29 14:41:11;;;;;;;;;;;;;;;25.72;41.79;95232.31;5554498;28;2025;-73